Airport details for: EDDV (Germany)

Metar

EDDV 250820Z 31010KT 9999 BKN016 BKN019 13/09 Q1024 NOSIG

General details

ICAO: EDDV
IATA: HAJ
Name (city): Hannover
Major:
Country: Germany
vACC: vACC Germany
Description:
Scenery links:
FS9 scenery:
FSX/P3D scenery:
XP scenery:
Elevation: 183 ft.
Transition altitude: 5000 ft.
MSA: 12400 ft.
Latitude: 52.460214
Longitude: 9.683522
EDDV Charts
EDDV Notams
EDDV Online stations

Runways

Number Course Length Elevation Lat Lon ILS ILS freq ILS FAC GP
09C 91° 2559ft / 780 m 178ft 52.464781 9.684564 - - 3.0°
09L 91° 12467ft / 3800 m 167ft 52.468245 9.652692 108.3 91° 3.0°
09R 91° 7677ft / 2340 m 172ft 52.454986 9.67677 108.7 91° 3.0°
27C 271° 2559ft / 780 m 174ft 52.464556 9.692647 - - 3.0°
27L 271° 7677ft / 2340 m 179ft 52.454031 9.71115 109.5 272° 3.0°
27R 271° 12467ft / 3800 m 169ft 52.466947 9.699728 108.9 272° 3.0°